createdAt,value
2023-05-16T00:01:12.181Z,72.30
2023-05-16T00:04:14.186Z,72.30
2023-05-16T00:07:16.019Z,72.18
2023-05-16T00:10:17.830Z,72.19
2023-05-16T00:13:25.569Z,72.19
2023-05-16T00:16:29.439Z,72.14
2023-05-16T00:19:32.280Z,72.15
2023-05-16T00:22:33.956Z,72.18
2023-05-16T00:25:36.018Z,72.15
2023-05-16T00:28:37.716Z,72.03
2023-05-16T00:31:39.482Z,72.02
2023-05-16T00:34:41.225Z,72.05
2023-05-16T00:37:43.015Z,71.99
2023-05-16T00:40:44.866Z,72.02
2023-05-16T00:43:46.499Z,72.05
2023-05-16T00:46:48.311Z,71.99
2023-05-16T00:49:50.199Z,72.04
2023-05-16T00:52:52.049Z,72.07
2023-05-16T00:55:55.820Z,71.94
2023-05-16T00:58:58.008Z,71.89
2023-05-16T01:02:00.786Z,71.91
2023-05-16T01:05:07.831Z,71.91
2023-05-16T01:08:09.676Z,71.88
2023-05-16T01:11:26.461Z,71.89
2023-05-16T01:14:51.710Z,71.86
2023-05-16T01:18:00.416Z,71.81
2023-05-16T01:21:12.128Z,71.82
2023-05-16T01:24:22.954Z,71.86
2023-05-16T01:27:27.008Z,71.91
2023-05-16T01:30:34.611Z,71.95
2023-05-16T01:33:36.561Z,72.00
2023-05-16T01:37:00.121Z,71.99
2023-05-16T01:40:10.723Z,71.97
2023-05-16T01:43:16.494Z,71.96
2023-05-16T01:46:26.447Z,71.92
2023-05-16T01:49:36.304Z,71.90
2023-05-16T01:52:42.021Z,71.91
2023-05-16T01:55:47.887Z,71.89
2023-05-16T01:58:51.994Z,71.83
2023-05-16T02:01:56.260Z,71.86
2023-05-16T02:04:58.050Z,71.94
2023-05-16T02:08:00.556Z,71.95
2023-05-16T02:11:02.451Z,71.98
2023-05-16T02:14:04.097Z,72.03
2023-05-16T02:17:06.148Z,72.05
2023-05-16T02:20:11.336Z,72.11
2023-05-16T02:23:13.073Z,72.20
2023-05-16T02:26:14.879Z,72.17
2023-05-16T02:29:16.618Z,72.19
2023-05-16T02:32:18.432Z,72.22
2023-05-16T02:35:20.239Z,72.30
2023-05-16T02:38:22.088Z,72.33
2023-05-16T02:41:24.299Z,72.37
2023-05-16T02:44:25.999Z,72.44
2023-05-16T02:47:27.770Z,72.53
2023-05-16T02:50:29.640Z,72.62
2023-05-16T02:53:31.286Z,72.63
2023-05-16T02:56:33.033Z,72.68
2023-05-16T02:59:35.669Z,72.71
2023-05-16T03:02:37.957Z,72.79
2023-05-16T03:05:42.093Z,72.87
2023-05-16T03:08:43.750Z,72.87
2023-05-16T03:11:46.005Z,72.89
2023-05-16T03:14:47.610Z,72.98
2023-05-16T03:17:49.391Z,72.87
2023-05-16T03:20:52.334Z,72.96
2023-05-16T03:23:54.586Z,72.98
2023-05-16T03:26:56.876Z,73.11
2023-05-16T03:29:58.699Z,73.13
2023-05-16T03:33:00.590Z,73.06
2023-05-16T03:36:02.443Z,73.15
2023-05-16T03:39:04.664Z,73.25
2023-05-16T03:42:07.030Z,73.27
2023-05-16T03:45:09.082Z,73.18
2023-05-16T03:48:10.822Z,73.25
2023-05-16T03:51:12.604Z,73.30
2023-05-16T03:54:14.564Z,73.32
2023-05-16T03:57:16.530Z,73.36
2023-05-16T04:00:18.338Z,73.38
2023-05-16T04:03:27.515Z,73.47
2023-05-16T04:06:29.251Z,73.53
2023-05-16T04:09:30.887Z,73.54
2023-05-16T04:12:32.614Z,73.62
2023-05-16T04:15:34.352Z,73.65
2023-05-16T04:18:36.127Z,73.74
2023-05-16T04:21:37.828Z,73.84
2023-05-16T04:24:39.548Z,73.80
2023-05-16T04:27:41.580Z,73.88
2023-05-16T04:30:43.504Z,73.94
2023-05-16T04:33:45.416Z,74.05
2023-05-16T04:36:47.114Z,74.13
2023-05-16T04:39:48.753Z,74.22
2023-05-16T04:42:50.844Z,74.32
2023-05-16T04:45:53.479Z,74.30
2023-05-16T04:48:55.320Z,74.15
2023-05-16T04:51:57.162Z,74.19
2023-05-16T04:54:59.859Z,74.27
2023-05-16T04:58:01.605Z,74.22
2023-05-16T05:01:03.663Z,74.27
2023-05-16T05:04:05.330Z,74.35
2023-05-16T05:07:07.727Z,74.31
2023-05-16T05:10:10.312Z,74.38
2023-05-16T05:13:12.110Z,74.49
2023-05-16T05:16:13.879Z,74.51
2023-05-16T05:19:15.690Z,74.55
2023-05-16T05:22:17.506Z,74.54
2023-05-16T05:25:19.293Z,74.32
2023-05-16T05:28:20.956Z,74.31
2023-05-16T05:31:22.915Z,74.21
2023-05-16T05:34:24.613Z,74.29
2023-05-16T05:37:26.686Z,74.21
2023-05-16T05:40:28.459Z,74.09
2023-05-16T05:43:30.290Z,73.75
2023-05-16T05:46:33.302Z,73.35
2023-05-16T05:49:35.514Z,73.09
2023-05-16T05:52:37.930Z,73.30
2023-05-16T05:55:41.598Z,73.23
2023-05-16T05:58:43.386Z,72.88
2023-05-16T06:01:45.124Z,72.86
2023-05-16T06:04:46.941Z,72.58
2023-05-16T06:07:48.784Z,72.73
2023-05-16T06:10:50.573Z,72.59
2023-05-16T06:13:52.482Z,72.35
2023-05-16T06:16:54.463Z,71.98
2023-05-16T06:19:56.174Z,72.14
2023-05-16T06:22:57.881Z,72.01
2023-05-16T06:25:59.684Z,71.65
2023-05-16T06:29:01.385Z,71.40
2023-05-16T06:32:03.199Z,71.48
2023-05-16T06:35:05.327Z,71.37
2023-05-16T06:38:07.018Z,71.33
2023-05-16T06:41:08.707Z,71.28
2023-05-16T06:44:11.011Z,70.58
2023-05-16T06:47:12.822Z,70.78
2023-05-16T06:50:15.042Z,70.70
2023-05-16T06:53:17.507Z,70.42
2023-05-16T06:56:19.524Z,70.12
2023-05-16T06:59:21.542Z,70.32
2023-05-16T07:02:23.694Z,69.77
2023-05-16T07:05:25.811Z,69.92
2023-05-16T07:08:27.560Z,69.67
2023-05-16T07:11:29.517Z,69.89
2023-05-16T07:14:31.388Z,69.87
2023-05-16T07:24:39.281Z,67.46
2023-05-16T07:27:45.095Z,67.83
2023-05-16T07:30:48.803Z,68.05
2023-05-16T07:33:53.929Z,68.48
2023-05-16T07:36:57.550Z,67.90
2023-05-16T07:40:01.100Z,67.18
2023-05-16T07:43:04.251Z,67.42
2023-05-16T07:46:07.370Z,66.95
2023-05-16T07:49:11.052Z,66.65
2023-05-16T07:52:14.179Z,67.18
2023-05-16T07:55:17.363Z,67.70
2023-05-16T07:58:20.507Z,67.31
2023-05-16T08:01:23.798Z,66.12
2023-05-16T08:04:26.907Z,66.03
2023-05-16T08:07:30.168Z,66.83
2023-05-16T08:10:33.390Z,65.07
2023-05-16T08:13:36.965Z,63.79
2023-05-16T08:16:41.166Z,63.15
2023-05-16T08:19:44.240Z,62.23
2023-05-16T08:22:47.269Z,61.26
2023-05-16T08:25:50.384Z,61.41
2023-05-16T08:28:53.549Z,61.22
2023-05-16T08:31:56.989Z,62.24
2023-05-16T08:35:00.513Z,61.49
2023-05-16T08:38:03.772Z,61.19
2023-05-16T08:41:06.931Z,62.08
2023-05-16T08:44:12.949Z,62.46
2023-05-16T08:47:21.835Z,61.94
2023-05-16T08:50:25.874Z,60.47
2023-05-16T08:53:37.327Z,60.21
2023-05-16T08:56:42.496Z,60.25
2023-05-16T08:59:45.722Z,59.98
2023-05-16T09:02:50.251Z,58.71
2023-05-16T09:05:53.388Z,58.83
2023-05-16T09:08:56.753Z,59.14
2023-05-16T09:12:00.097Z,58.97
2023-05-16T09:15:05.081Z,57.65
2023-05-16T09:18:14.049Z,56.45
2023-05-16T09:21:17.386Z,55.71
2023-05-16T09:24:26.417Z,56.71
2023-05-16T09:27:31.782Z,56.31
2023-05-16T09:30:35.436Z,56.11
2023-05-16T09:33:41.937Z,56.00
2023-05-16T09:36:45.138Z,56.61
2023-05-16T09:39:52.998Z,56.55
2023-05-16T09:43:04.619Z,54.76
2023-05-16T09:46:08.497Z,54.63
2023-05-16T09:49:14.552Z,54.26
2023-05-16T09:52:18.770Z,55.39
2023-05-16T09:55:23.251Z,53.51
2023-05-16T09:58:35.226Z,53.01
2023-05-16T10:01:38.804Z,52.01
2023-05-16T10:04:42.555Z,53.28
2023-05-16T10:07:46.158Z,52.49
2023-05-16T10:10:54.128Z,51.50
2023-05-16T10:13:57.330Z,51.76
2023-05-16T10:17:01.545Z,53.97
2023-05-16T10:20:08.148Z,53.40
2023-05-16T10:23:19.326Z,54.09
2023-05-16T10:26:23.901Z,55.17
2023-05-16T10:29:28.795Z,56.14
2023-05-16T10:32:32.597Z,53.65
2023-05-16T10:35:37.256Z,54.98
2023-05-16T10:38:41.549Z,54.26
2023-05-16T10:41:45.089Z,54.06
2023-05-16T10:44:58.496Z,56.68
2023-05-16T10:48:10.029Z,58.03
2023-05-16T10:51:22.037Z,56.96
2023-05-16T10:54:35.504Z,57.36
2023-05-16T10:57:42.599Z,57.24
2023-05-16T11:00:51.131Z,57.15
2023-05-16T11:03:57.347Z,56.87
2023-05-16T11:07:01.853Z,56.48
2023-05-16T11:10:17.279Z,57.49
2023-05-16T11:13:24.808Z,58.48
2023-05-16T11:16:29.355Z,59.10
2023-05-16T11:19:45.194Z,59.83
2023-05-16T11:22:48.318Z,60.28
2023-05-16T11:26:00.769Z,59.01
2023-05-16T11:29:04.771Z,59.58
2023-05-16T11:32:10.619Z,59.47
2023-05-16T11:35:18.049Z,59.28
2023-05-16T11:38:21.272Z,59.54
2023-05-16T11:41:24.546Z,59.25
2023-05-16T11:44:28.043Z,57.62
2023-05-16T11:47:32.154Z,58.11
2023-05-16T11:50:36.320Z,58.68
2023-05-16T11:53:39.901Z,57.74
2023-05-16T11:56:43.235Z,56.72
2023-05-16T11:59:46.499Z,56.85
2023-05-16T12:02:50.307Z,57.53
2023-05-16T12:05:57.317Z,57.59
2023-05-16T12:09:03.925Z,56.12
2023-05-16T12:12:07.749Z,57.09
2023-05-16T12:15:12.130Z,58.05
2023-05-16T12:18:16.776Z,58.03
2023-05-16T12:21:21.640Z,58.03
2023-05-16T12:24:30.969Z,57.55
2023-05-16T12:27:34.093Z,57.30
2023-05-16T12:30:42.727Z,57.22
2023-05-16T12:33:46.732Z,57.25
2023-05-16T12:36:53.989Z,57.66
2023-05-16T12:40:01.060Z,57.56
2023-05-16T12:43:04.605Z,58.38
2023-05-16T12:46:12.185Z,58.99
2023-05-16T12:49:15.598Z,56.84
2023-05-16T12:52:23.118Z,57.01
2023-05-16T12:55:27.056Z,57.80
2023-05-16T12:58:30.808Z,58.01
2023-05-16T13:01:35.699Z,57.58
2023-05-16T13:04:38.890Z,58.72
2023-05-16T13:07:42.098Z,58.12
2023-05-16T13:10:45.195Z,57.39
2023-05-16T13:13:48.320Z,57.03
2023-05-16T13:16:51.599Z,57.21
2023-05-16T13:19:54.717Z,57.05
2023-05-16T13:22:57.843Z,55.65
2023-05-16T13:26:03.649Z,54.90
2023-05-16T13:29:07.507Z,56.08
2023-05-16T13:32:10.841Z,56.71
2023-05-16T13:35:14.456Z,56.64
2023-05-16T13:38:17.588Z,56.62
2023-05-16T13:41:20.942Z,57.97
2023-05-16T13:44:24.059Z,58.42
2023-05-16T13:47:27.502Z,57.31
2023-05-16T13:50:33.950Z,57.57
2023-05-16T13:53:41.979Z,57.75
2023-05-16T13:56:45.713Z,56.84
2023-05-16T14:00:17.673Z,58.47
2023-05-16T14:03:14.783Z,58.39
2023-05-16T14:06:18.192Z,58.91
2023-05-16T14:09:21.270Z,60.18
2023-05-16T14:12:24.516Z,60.48
2023-05-16T14:15:27.991Z,61.12
2023-05-16T14:18:31.418Z,61.97
2023-05-16T14:21:34.597Z,62.09
2023-05-16T14:24:37.841Z,62.52
2023-05-16T14:27:41.484Z,63.13
2023-05-16T14:30:45.988Z,62.89
2023-05-16T14:33:51.489Z,63.29
2023-05-16T14:36:54.772Z,63.29
2023-05-16T14:39:58.002Z,64.30
2023-05-16T14:43:04.158Z,65.11
2023-05-16T14:46:07.480Z,65.29
2023-05-16T14:49:11.144Z,66.02
2023-05-16T14:52:14.272Z,66.23
2023-05-16T14:55:17.322Z,66.95
2023-05-16T14:58:20.303Z,67.32
2023-05-16T15:01:23.462Z,68.02
2023-05-16T15:04:28.394Z,68.65
2023-05-16T15:07:31.431Z,68.76
2023-05-16T15:10:34.596Z,69.13
2023-05-16T15:13:37.870Z,69.51
2023-05-16T15:16:41.005Z,69.85
2023-05-16T15:19:44.130Z,70.32
2023-05-16T15:22:47.919Z,70.77
2023-05-16T15:25:52.324Z,71.37
2023-05-16T15:28:55.766Z,71.75
2023-05-16T15:31:58.850Z,72.12
2023-05-16T15:35:01.976Z,72.48
2023-05-16T15:38:05.079Z,72.18
2023-05-16T15:41:24.038Z,72.27
2023-05-16T15:44:33.130Z,72.60
2023-05-16T15:47:39.283Z,72.69
2023-05-16T15:50:45.668Z,72.95
2023-05-16T15:53:56.147Z,73.28
2023-05-16T15:56:59.423Z,73.53
2023-05-16T16:00:02.549Z,73.66
2023-05-16T16:03:17.182Z,73.72
2023-05-16T16:06:21.726Z,73.86
2023-05-16T16:09:26.497Z,73.79
2023-05-16T16:12:31.321Z,73.92
2023-05-16T16:15:38.486Z,74.23
2023-05-16T16:18:46.164Z,74.44
2023-05-16T16:21:56.111Z,74.57
2023-05-16T16:25:00.617Z,74.78
2023-05-16T16:28:07.122Z,75.02
2023-05-16T16:31:11.008Z,75.19
2023-05-16T16:34:14.490Z,75.17
2023-05-16T16:37:17.611Z,75.30
2023-05-16T16:40:20.889Z,75.41
2023-05-16T16:43:23.871Z,75.30
2023-05-16T16:46:27.041Z,75.26
2023-05-16T16:49:31.421Z,75.45
2023-05-16T16:52:39.052Z,75.67
2023-05-16T16:55:45.839Z,75.70
2023-05-16T16:58:49.341Z,75.85
2023-05-16T17:01:52.530Z,76.00
2023-05-16T17:04:55.890Z,76.12
2023-05-16T17:07:58.989Z,76.10
2023-05-16T17:11:05.162Z,76.15
2023-05-16T17:14:10.744Z,76.30
2023-05-16T17:17:15.340Z,76.33
2023-05-16T17:20:18.548Z,76.46
2023-05-16T17:23:22.060Z,76.59
2023-05-16T17:26:25.118Z,76.67
2023-05-16T17:29:28.359Z,76.75
2023-05-16T17:32:31.781Z,76.88
2023-05-16T17:35:35.905Z,76.95
2023-05-16T17:38:38.982Z,77.01
2023-05-16T17:41:42.414Z,77.16
2023-05-16T17:44:45.770Z,77.29
2023-05-16T17:47:49.151Z,77.32
2023-05-16T17:50:52.181Z,77.38
2023-05-16T17:53:55.309Z,77.46
2023-05-16T17:57:00.601Z,77.54
2023-05-16T18:00:06.109Z,77.67
2023-05-16T18:03:09.529Z,77.72
2023-05-16T18:06:12.668Z,77.72
2023-05-16T18:09:15.684Z,77.74
2023-05-16T18:12:18.896Z,77.79
2023-05-16T18:15:22.504Z,77.84
2023-05-16T18:18:26.805Z,77.85
2023-05-16T18:21:30.419Z,77.91
2023-05-16T18:24:34.609Z,77.88
2023-05-16T18:27:38.121Z,77.86
2023-05-16T18:30:41.410Z,77.73
2023-05-16T18:33:44.791Z,77.65
2023-05-16T18:36:48.967Z,77.69
2023-05-16T18:39:52.536Z,77.62
2023-05-16T18:42:56.695Z,77.66
2023-05-16T18:46:01.850Z,77.59
2023-05-16T18:49:05.388Z,77.58
2023-05-16T18:52:09.596Z,77.59
2023-05-16T18:55:14.794Z,77.56
2023-05-16T18:58:19.007Z,77.54
2023-05-16T19:01:22.522Z,77.55
2023-05-16T19:04:26.049Z,77.59
2023-05-16T19:07:29.602Z,77.60
2023-05-16T19:10:38.103Z,77.54
2023-05-16T19:13:41.489Z,77.51
2023-05-16T19:16:44.636Z,77.48
2023-05-16T19:19:47.778Z,77.56
2023-05-16T19:22:51.650Z,77.64
2023-05-16T19:25:54.893Z,77.79
2023-05-16T19:28:58.118Z,77.71
2023-05-16T19:32:01.400Z,77.65
2023-05-16T19:35:05.398Z,77.69
2023-05-16T19:38:08.656Z,77.69
2023-05-16T19:41:11.735Z,77.70
2023-05-16T19:44:14.866Z,77.68
2023-05-16T19:47:18.164Z,77.64
2023-05-16T19:50:21.762Z,77.63
2023-05-16T19:53:24.810Z,77.64
2023-05-16T19:56:28.340Z,77.59
2023-05-16T19:59:34.274Z,77.54
2023-05-16T20:02:37.375Z,77.31
2023-05-16T20:05:40.482Z,77.03
2023-05-16T20:08:43.554Z,76.91
2023-05-16T20:11:46.803Z,76.88
2023-05-16T20:14:49.795Z,76.75
2023-05-16T20:17:52.885Z,76.71
2023-05-16T20:20:57.445Z,76.68
2023-05-16T20:24:01.828Z,76.64
2023-05-16T20:27:05.148Z,76.60
2023-05-16T20:30:08.736Z,76.53
2023-05-16T20:33:11.968Z,76.61
2023-05-16T20:36:15.087Z,76.77
2023-05-16T20:39:18.148Z,76.74
2023-05-16T20:42:21.895Z,76.92
2023-05-16T20:45:27.205Z,76.88
2023-05-16T20:48:30.552Z,76.83
2023-05-16T20:51:33.698Z,76.87
2023-05-16T20:54:36.796Z,76.94
2023-05-16T20:57:41.703Z,76.96
2023-05-16T21:00:46.074Z,77.09
2023-05-16T21:03:49.203Z,77.17
2023-05-16T21:06:52.339Z,77.23
2023-05-16T21:09:55.474Z,77.19
2023-05-16T21:12:58.535Z,77.23
2023-05-16T21:16:01.685Z,77.32
2023-05-16T21:19:04.932Z,77.38
2023-05-16T21:22:08.236Z,77.41
2023-05-16T21:25:11.364Z,77.47
2023-05-16T21:28:14.424Z,77.53
2023-05-16T21:31:17.530Z,77.47
2023-05-16T21:34:20.509Z,77.43
2023-05-16T21:37:23.619Z,77.42
2023-05-16T21:40:28.769Z,77.37
2023-05-16T21:43:31.780Z,77.36
2023-05-16T21:46:34.845Z,77.32
2023-05-16T21:49:37.839Z,77.16
2023-05-16T21:52:41.294Z,77.09
2023-05-16T21:55:44.432Z,77.06
2023-05-16T21:58:47.500Z,77.09
2023-05-16T22:01:50.531Z,77.08
2023-05-16T22:04:53.581Z,77.02
2023-05-16T22:07:56.646Z,77.01
2023-05-16T22:10:59.974Z,77.02
2023-05-16T22:14:03.152Z,76.96
2023-05-16T22:17:06.297Z,76.85
2023-05-16T22:20:09.769Z,76.92
2023-05-16T22:23:12.831Z,76.87
2023-05-16T22:26:15.810Z,76.91
2023-05-16T22:29:18.893Z,76.83
2023-05-16T22:32:22.374Z,76.95
2023-05-16T22:35:27.329Z,76.75
2023-05-16T22:38:31.803Z,76.68
2023-05-16T22:41:35.012Z,76.64
2023-05-16T22:44:38.352Z,76.63
2023-05-16T22:47:41.563Z,76.61
2023-05-16T22:50:44.621Z,76.58
2023-05-16T22:53:47.793Z,76.59
2023-05-16T22:56:51.631Z,76.60
2023-05-16T22:59:55.950Z,76.60
2023-05-16T23:02:59.139Z,76.65
2023-05-16T23:06:02.255Z,76.69
2023-05-16T23:09:05.360Z,76.59
2023-05-16T23:12:08.812Z,76.59
2023-05-16T23:15:11.905Z,76.64
2023-05-16T23:18:15.044Z,76.67
2023-05-16T23:21:18.091Z,76.63
2023-05-16T23:24:21.253Z,76.68
2023-05-16T23:27:24.299Z,76.77
2023-05-16T23:30:27.327Z,76.85
2023-05-16T23:33:30.654Z,76.87
2023-05-16T23:36:33.787Z,76.89
2023-05-16T23:39:36.929Z,76.90
2023-05-16T23:42:42.705Z,76.99
2023-05-16T23:45:45.901Z,76.81
2023-05-16T23:48:49.020Z,76.77
2023-05-16T23:51:57.903Z,76.73
2023-05-16T23:55:01.887Z,76.74
2023-05-16T23:58:04.952Z,76.72
